ICAO code: LHPR | IATA code: QGY | SITA: QGYAPXH | AFTN: LHPRZPZX

Időjárási adatok

METAR LHPR 140745Z AUTO 34010KT 310V020 CAVOK 17/09 Q1023 NOSIG=
TAF LHPR 140515Z 1406/1415 34010KT CAVOK TEMPO 1406/1415 34015G25KT=
Nem volt érdemleges időjárási jelenség az elmúlt órában
2021-06-14 07:40:00 UTC
Hőmérséklet
17.5 °C
 
Harmatpont
8.9 °C
 
Rel. páratartalom
57%
 
QNH
1022.9 hPa
 
Szélsebesség
4.0 m/s
Max
7.8 m/s
Szélirány
350°
 
Csapadék (1 óra)
0.0 mm
 
Látótávolság
19592 m
 
RVR
>1500 m RWY30
 
1. felhőréteg mennyisége
0 octa
 
1. felhőréteg alapja
m